Ana Sayfa
METAR-TAF:

METAR-TAF

Havaalanları :

Houston, Teksas, Amerika Birleşik Devletleri

Enlem: 29-48-18N, Boylam: 095-53-52W, yükseklik: 51 m

Güncel hava durumu gözlemi

Rapor saat 05:35 UTC de 33 dakika önce yapıldı.
Rüzgar güney/güneybatıdan 6 kt
Sıcaklık 26°C
Nem 100%
Basınç 1016 hPa
Görüş mesafesi: 14.5 km
Açık gökyüzü

METAR: KTME 160535Z AUTO 20006KT 9SM CLR 26/26 A2999 RMK AO2

Saat: 00:08 (06:08 UTC)


TAF: eksik

4.000'den fazla havaalanı için hava durumu gözlemleri ve tahminleri (METAR ve TAF raporları).

Kullanılabilir istasyonlar harita üzerinde sarı ve kırmızı noktalarla gösterilir.

İstasyonun adını görmek için fareyi noktanın üzerinde gezdirin.

Sonrasında hava gözlem ve tahminlerini görmek için tıklayın.

Haritayı değiştirmek için: yaklaştırmak için siyah artı işaretli yeşil düğmeye ve uzaklaştırmak için de eksi işaretli düğmeye hızla tıklayın; bitişik haritalar için yeşil okları kullanın.


METAR-TAF: